SKW3531 KDTW-KGRR
Flight info
| Callsign | SKW3531 |
|---|---|
| Flight time | 0h 27m |
| Altitude | 20000 |
| Route | KAYLN3 KAYLN |
| Aircraft | CRJ9/M-SDFGIRWY/S |
Departure
| Time | 2026-05-07 20:24 |
|---|---|
| Airport | Detroit Metropolitan Wayne County Airport (KDTW) |
Arrival
| Time | 2026-05-07 20:52 |
|---|---|
| Airport | Gerald R. Ford International Airport (KGRR) |
| Time | Latitude | Longitude | Altitude | Speed | Heading |
|---|---|---|---|---|---|
| 2026-05-07 20:06 | 42.21176 | -83.35938 | 646 ft | 0 kts | 298° |
| 2026-05-07 20:14 | 42.21171 | -83.35928 | 646 ft | 4 kts | 301° |
| 2026-05-07 20:14 | 42.21154 | -83.35901 | 648 ft | 4 kts | 322° |
| 2026-05-07 20:14 | 42.21131 | -83.35888 | 648 ft | 4 kts | 357° |
| 2026-05-07 20:15 | 42.21111 | -83.35896 | 647 ft | 1 kts | 29° |
| 2026-05-07 20:15 | 42.21110 | -83.35897 | 647 ft | 0 kts | 29° |
| 2026-05-07 20:18 | 42.21125 | -83.35885 | 647 ft | 5 kts | 29° |
| 2026-05-07 20:18 | 42.21176 | -83.35847 | 646 ft | 11 kts | 29° |
| 2026-05-07 20:18 | 42.21245 | -83.35797 | 646 ft | 12 kts | 28° |
| 2026-05-07 20:18 | 42.21317 | -83.35744 | 646 ft | 12 kts | 28° |
| 2026-05-07 20:19 | 42.21394 | -83.35687 | 646 ft | 13 kts | 28° |
| 2026-05-07 20:19 | 42.21481 | -83.35623 | 645 ft | 16 kts | 28° |
| 2026-05-07 20:19 | 42.21545 | -83.35498 | 645 ft | 18 kts | 85° |
| 2026-05-07 20:19 | 42.21549 | -83.35322 | 645 ft | 19 kts | 88° |
| 2026-05-07 20:20 | 42.21553 | -83.35142 | 645 ft | 19 kts | 88° |
| 2026-05-07 20:20 | 42.21612 | -83.35013 | 647 ft | 17 kts | 43° |
| 2026-05-07 20:20 | 42.21702 | -83.34898 | 647 ft | 19 kts | 44° |
| 2026-05-07 20:20 | 42.21800 | -83.34771 | 647 ft | 18 kts | 43° |
| 2026-05-07 20:21 | 42.21835 | -83.34631 | 646 ft | 16 kts | 90° |
| 2026-05-07 20:21 | 42.21890 | -83.34475 | 647 ft | 26 kts | 28° |
| 2026-05-07 20:21 | 42.22048 | -83.34359 | 645 ft | 26 kts | 28° |
| 2026-05-07 20:21 | 42.22207 | -83.34242 | 645 ft | 26 kts | 28° |
| 2026-05-07 20:22 | 42.22365 | -83.34126 | 646 ft | 26 kts | 28° |
| 2026-05-07 20:22 | 42.22522 | -83.34010 | 646 ft | 25 kts | 28° |
| 2026-05-07 20:22 | 42.22677 | -83.33896 | 645 ft | 25 kts | 30° |
| 2026-05-07 20:22 | 42.22824 | -83.33789 | 645 ft | 14 kts | 28° |
| 2026-05-07 20:23 | 42.22845 | -83.33683 | 644 ft | 13 kts | 118° |
| 2026-05-07 20:23 | 42.22801 | -83.33642 | 643 ft | 8 kts | 191° |
| 2026-05-07 20:23 | 42.22672 | -83.33733 | 645 ft | 47 kts | 208° |
| 2026-05-07 20:23 | 42.22148 | -83.34117 | 646 ft | 121 kts | 208° |
| 2026-05-07 20:24 | 42.21233 | -83.34772 | 757 ft | 165 kts | 211° |
| 2026-05-07 20:24 | 42.20243 | -83.35422 | 1812 ft | 156 kts | 213° |
| 2026-05-07 20:24 | 42.19255 | -83.36094 | 2584 ft | 162 kts | 223° |
| 2026-05-07 20:24 | 42.18365 | -83.37123 | 3144 ft | 179 kts | 229° |
| 2026-05-07 20:25 | 42.17456 | -83.38364 | 3850 ft | 193 kts | 232° |
| 2026-05-07 20:25 | 42.16483 | -83.39758 | 4606 ft | 213 kts | 232° |
| 2026-05-07 20:25 | 42.15476 | -83.41312 | 5417 ft | 226 kts | 239° |
| 2026-05-07 20:25 | 42.15021 | -83.43337 | 6121 ft | 234 kts | 272° |
| 2026-05-07 20:26 | 42.15092 | -83.45590 | 6796 ft | 251 kts | 275° |
| 2026-05-07 20:26 | 42.15228 | -83.47884 | 8043 ft | 240 kts | 276° |
| 2026-05-07 20:26 | 42.15376 | -83.50173 | 8846 ft | 247 kts | 276° |
| 2026-05-07 20:26 | 42.15481 | -83.52493 | 9719 ft | 249 kts | 274° |
| 2026-05-07 20:27 | 42.15524 | -83.54840 | 10508 ft | 252 kts | 272° |
| 2026-05-07 20:27 | 42.15526 | -83.57219 | 10987 ft | 267 kts | 271° |
| 2026-05-07 20:27 | 42.15502 | -83.59851 | 11283 ft | 287 kts | 271° |
| 2026-05-07 20:27 | 42.15481 | -83.62619 | 11664 ft | 303 kts | 271° |
| 2026-05-07 20:28 | 42.15463 | -83.65467 | 12275 ft | 310 kts | 271° |
| 2026-05-07 20:28 | 42.15445 | -83.68389 | 13011 ft | 313 kts | 271° |
| 2026-05-07 20:28 | 42.15425 | -83.71342 | 13857 ft | 317 kts | 271° |
| 2026-05-07 20:28 | 42.15403 | -83.74320 | 14725 ft | 318 kts | 271° |
| 2026-05-07 20:29 | 42.15385 | -83.77312 | 15598 ft | 320 kts | 272° |
| 2026-05-07 20:29 | 42.15843 | -83.80219 | 16410 ft | 321 kts | 292° |
| 2026-05-07 20:29 | 42.16784 | -83.82958 | 17212 ft | 323 kts | 293° |
| 2026-05-07 20:29 | 42.17816 | -83.85663 | 17993 ft | 327 kts | 299° |
| 2026-05-07 20:30 | 42.19117 | -83.88200 | 18655 ft | 331 kts | 303° |
| 2026-05-07 20:30 | 42.20518 | -83.90685 | 19249 ft | 335 kts | 304° |
| 2026-05-07 20:30 | 42.21466 | -83.92340 | 19556 ft | 339 kts | 304° |
| 2026-05-07 20:32 | 42.31356 | -84.10714 | 19975 ft | 342 kts | 302° |
| 2026-05-07 20:32 | 42.34573 | -84.16741 | 19962 ft | 333 kts | 302° |
| 2026-05-07 20:33 | 42.35930 | -84.19293 | 19965 ft | 335 kts | 302° |
| 2026-05-07 20:33 | 42.37291 | -84.21858 | 19969 ft | 337 kts | 302° |
| 2026-05-07 20:33 | 42.38658 | -84.24438 | 19972 ft | 338 kts | 302° |
| 2026-05-07 20:33 | 42.40031 | -84.27028 | 19975 ft | 340 kts | 302° |
| 2026-05-07 20:34 | 42.41415 | -84.29646 | 19797 ft | 344 kts | 302° |
| 2026-05-07 20:34 | 42.42825 | -84.32282 | 19547 ft | 348 kts | 303° |
| 2026-05-07 20:34 | 42.44242 | -84.34962 | 19216 ft | 353 kts | 302° |
| 2026-05-07 20:34 | 42.45654 | -84.37650 | 18849 ft | 345 kts | 302° |
| 2026-05-07 20:35 | 42.47031 | -84.40251 | 18437 ft | 334 kts | 302° |
| 2026-05-07 20:35 | 42.48365 | -84.42769 | 17983 ft | 325 kts | 302° |
| 2026-05-07 20:35 | 42.49683 | -84.45273 | 17508 ft | 328 kts | 302° |
| 2026-05-07 20:35 | 42.51013 | -84.47799 | 17037 ft | 330 kts | 302° |
| 2026-05-07 20:36 | 42.52337 | -84.50315 | 16565 ft | 325 kts | 302° |
| 2026-05-07 20:36 | 42.53615 | -84.52738 | 16126 ft | 316 kts | 302° |
| 2026-05-07 20:36 | 42.54881 | -84.55131 | 15686 ft | 309 kts | 302° |
| 2026-05-07 20:36 | 42.56136 | -84.57494 | 15237 ft | 302 kts | 302° |
| 2026-05-07 20:37 | 42.57341 | -84.59755 | 14816 ft | 297 kts | 302° |
| 2026-05-07 20:37 | 42.58548 | -84.62016 | 14388 ft | 295 kts | 303° |
| 2026-05-07 20:37 | 42.59275 | -84.63373 | 14132 ft | 296 kts | 302° |
| 2026-05-07 20:38 | 42.60208 | -84.65118 | 13819 ft | 295 kts | 302° |
| 2026-05-07 20:38 | 42.61415 | -84.67364 | 13370 ft | 294 kts | 303° |
| 2026-05-07 20:39 | 42.62616 | -84.69603 | 12896 ft | 292 kts | 303° |
| 2026-05-07 20:39 | 42.63808 | -84.71820 | 12437 ft | 290 kts | 303° |
| 2026-05-07 20:39 | 42.64995 | -84.74022 | 11996 ft | 288 kts | 303° |
| 2026-05-07 20:39 | 42.66173 | -84.76206 | 11568 ft | 285 kts | 303° |
| 2026-05-07 20:40 | 42.67337 | -84.78359 | 11096 ft | 279 kts | 303° |
| 2026-05-07 20:40 | 42.68464 | -84.80431 | 10655 ft | 267 kts | 303° |
| 2026-05-07 20:40 | 42.69551 | -84.82414 | 10206 ft | 257 kts | 303° |
| 2026-05-07 20:40 | 42.70618 | -84.84354 | 9784 ft | 255 kts | 303° |
| 2026-05-07 20:41 | 42.71673 | -84.86268 | 9323 ft | 252 kts | 303° |
| 2026-05-07 20:41 | 42.72727 | -84.88178 | 8859 ft | 252 kts | 303° |
| 2026-05-07 20:41 | 42.73779 | -84.90086 | 8413 ft | 250 kts | 303° |
| 2026-05-07 20:41 | 42.74812 | -84.91955 | 7981 ft | 247 kts | 303° |
| 2026-05-07 20:42 | 42.75845 | -84.93820 | 7539 ft | 247 kts | 303° |
| 2026-05-07 20:42 | 42.76880 | -84.95685 | 7124 ft | 247 kts | 304° |
| 2026-05-07 20:42 | 42.77914 | -84.97544 | 6699 ft | 246 kts | 304° |
| 2026-05-07 20:42 | 42.78947 | -84.99399 | 6293 ft | 245 kts | 304° |
| 2026-05-07 20:43 | 42.79974 | -85.01240 | 5894 ft | 244 kts | 304° |
| 2026-05-07 20:43 | 42.80999 | -85.03077 | 5506 ft | 242 kts | 304° |
| 2026-05-07 20:43 | 42.82010 | -85.04887 | 5113 ft | 237 kts | 304° |
| 2026-05-07 20:43 | 42.82982 | -85.06621 | 4859 ft | 224 kts | 304° |
| 2026-05-07 20:44 | 42.83918 | -85.08279 | 4708 ft | 213 kts | 304° |
| 2026-05-07 20:44 | 42.84820 | -85.09882 | 4538 ft | 210 kts | 304° |
| 2026-05-07 20:44 | 42.85695 | -85.11429 | 4320 ft | 202 kts | 304° |
| 2026-05-07 20:44 | 42.86535 | -85.12909 | 4093 ft | 198 kts | 304° |
| 2026-05-07 20:45 | 42.87379 | -85.14379 | 3852 ft | 198 kts | 305° |
| 2026-05-07 20:45 | 42.88233 | -85.15863 | 3665 ft | 199 kts | 305° |
| 2026-05-07 20:45 | 42.89081 | -85.17354 | 3429 ft | 199 kts | 304° |
| 2026-05-07 20:45 | 42.89919 | -85.18856 | 3236 ft | 199 kts | 304° |
| 2026-05-07 20:46 | 42.90768 | -85.20352 | 3104 ft | 199 kts | 306° |
| 2026-05-07 20:46 | 42.91592 | -85.21857 | 2867 ft | 197 kts | 296° |
| 2026-05-07 20:46 | 42.91736 | -85.23641 | 2763 ft | 189 kts | 259° |
| 2026-05-07 20:46 | 42.91663 | -85.25365 | 2717 ft | 178 kts | 281° |
| 2026-05-07 20:47 | 42.91962 | -85.26966 | 2709 ft | 170 kts | 284° |
| 2026-05-07 20:47 | 42.92269 | -85.28487 | 2699 ft | 163 kts | 284° |
| 2026-05-07 20:47 | 42.92562 | -85.30014 | 2693 ft | 173 kts | 279° |
| 2026-05-07 20:47 | 42.92380 | -85.31684 | 2577 ft | 188 kts | 246° |
| 2026-05-07 20:48 | 42.91566 | -85.33068 | 2701 ft | 183 kts | 233° |
| 2026-05-07 20:48 | 42.90734 | -85.34358 | 2642 ft | 177 kts | 233° |
| 2026-05-07 20:48 | 42.90029 | -85.35672 | 2454 ft | 169 kts | 243° |
| 2026-05-07 20:48 | 42.89643 | -85.37134 | 2297 ft | 156 kts | 264° |
| 2026-05-07 20:49 | 42.89488 | -85.38513 | 2409 ft | 142 kts | 261° |
| 2026-05-07 20:49 | 42.89315 | -85.39815 | 2337 ft | 135 kts | 261° |
| 2026-05-07 20:49 | 42.89151 | -85.41067 | 2213 ft | 137 kts | 261° |
| 2026-05-07 20:49 | 42.88993 | -85.42334 | 2162 ft | 135 kts | 263° |
| 2026-05-07 20:50 | 42.88851 | -85.43623 | 1970 ft | 135 kts | 262° |
| 2026-05-07 20:50 | 42.88691 | -85.44848 | 1746 ft | 129 kts | 261° |
| 2026-05-07 20:50 | 42.88579 | -85.46085 | 1488 ft | 134 kts | 262° |
| 2026-05-07 20:50 | 42.88419 | -85.47362 | 1341 ft | 140 kts | 262° |
| 2026-05-07 20:51 | 42.88285 | -85.48672 | 1157 ft | 133 kts | 262° |
| 2026-05-07 20:51 | 42.88142 | -85.49887 | 936 ft | 128 kts | 262° |
| 2026-05-07 20:51 | 42.88011 | -85.51113 | 814 ft | 136 kts | 262° |
| 2026-05-07 20:51 | 42.87900 | -85.52140 | 796 ft | 54 kts | 262° |
| 2026-05-07 20:52 | 42.87867 | -85.52408 | 800 ft | 25 kts | 261° |
| 2026-05-07 20:52 | 42.87852 | -85.52627 | 802 ft | 23 kts | 274° |
| 2026-05-07 20:52 | 42.87877 | -85.52831 | 802 ft | 17 kts | 285° |
| 2026-05-07 20:52 | 42.87940 | -85.52943 | 800 ft | 14 kts | 344° |
| 2026-05-07 20:53 | 42.88018 | -85.52987 | 799 ft | 12 kts | 351° |
| 2026-05-07 20:53 | 42.88082 | -85.52960 | 800 ft | 8 kts | 37° |
| 2026-05-07 20:53 | 42.88102 | -85.52940 | 800 ft | 2 kts | 34° |
| 2026-05-07 20:53 | 42.88113 | -85.52930 | 799 ft | 0 kts | 34° |